Terminal Aerodrome Forecast
Issued by NWS

Home | Current Version | Previous Version | Graphics & Text | Print | Product List | Glossary On
Versions: 1 2 3 4 5 6 7 8 9 10 11 12 13 14 15 16 17 18 19 20
000
FTUS43 KICT 060844 AAA
TAFSLN
TAF AMD
KSLN 060844Z 0609/0706 14009KT P6SM -RA SCT035 OVC070
     FM061100 15013KT P6SM VCSH OVC100
     FM061500 17017KT P6SM VCSH OVC013
     FM061800 17017G22KT P6SM VCSH OVC015=

USA.gov is the U.S. government's official web portal to all federal, state and local government web resources and services.